Time;durP1;ratioP1;P1;durP2;ratioP2;P2;SDS_P1;SDS_P2;PMS_P1;PMS_P2;Temp;Humidity;BMP_temperature;BMP_pressure;BME280_temperature;BME280_humidity;BME280_pressure;Samples;Min_cycle;Max_cycle;Signal;HPM_P1;HPM_P2
2023/01/24 00:01:11;;;;;;;42.03;20.40;;;2.10;99.90;;;;;;5030054;28;20060;-74
2023/01/24 00:03:37;;;;;;;43.83;22.03;;;2.10;99.90;;;;;;5011968;28;20041;-73
2023/01/24 00:06:02;;;;;;;41.83;20.10;;;2.20;99.90;;;;;;5012103;28;20029;-75
2023/01/24 00:08:28;;;;;;;42.92;21.02;;;2.20;99.90;;;;;;5029755;28;20040;-69
2023/01/24 00:11:08;;;;;;;51.63;25.03;;;2.20;99.90;;;;;;5029254;28;20029;-68
2023/01/24 00:13:35;;;;;;;59.33;27.17;;;2.30;99.90;;;;;;5029121;28;20029;-72
2023/01/24 00:16:18;;;;;;;52.97;22.73;;;2.30;99.90;;;;;;5029394;28;20028;-69
2023/01/24 00:18:44;;;;;;;43.67;20.67;;;2.30;99.90;;;;;;5029923;28;20041;-75
2023/01/24 00:21:19;;;;;;;44.58;20.30;;;2.20;99.90;;;;;;5029247;28;20029;-72
2023/01/24 00:23:47;;;;;;;49.40;21.25;;;2.10;99.90;;;;;;5028317;28;20390;-73
2023/01/24 00:26:13;;;;;;;40.42;19.33;;;2.10;99.90;;;;;;5029681;28;20033;-70
2023/01/24 00:28:39;;;;;;;;;;;2.20;99.90;;;;;;5029725;28;20159;-67
2023/01/24 00:31:05;;;;;;;41.22;20.80;;;2.30;99.90;;;;;;5029122;28;19996;-68
2023/01/24 00:33:31;;;;;;;47.00;22.58;;;2.20;99.90;;;;;;5011660;28;20026;-67
2023/01/24 00:35:57;;;;;;;37.35;21.15;;;2.20;99.90;;;;;;5029336;28;20860;-72
2023/01/24 00:38:22;;;;;;;50.37;23.20;;;2.30;99.90;;;;;;5011474;28;20029;-72
2023/01/24 00:40:48;;;;;;;44.13;22.47;;;2.20;99.90;;;;;;5029038;28;20291;-69
2023/01/24 00:43:14;;;;;;;48.72;23.27;;;2.20;99.90;;;;;;5029249;28;20511;-69
2023/01/24 00:45:40;;;;;;;48.92;23.95;;;2.20;99.90;;;;;;5028958;28;20037;-73
2023/01/24 00:48:08;;;;;;;46.58;24.17;;;2.30;99.90;;;;;;5028773;28;20032;-73
2023/01/24 00:50:34;;;;;;;44.03;22.67;;;2.30;99.90;;;;;;5028565;28;20041;-72
2023/01/24 00:53:00;;;;;;;44.05;21.75;;;2.30;99.90;;;;;;5028896;28;20029;-69
2023/01/24 00:55:26;;;;;;;45.95;21.63;;;2.30;99.90;;;;;;5028549;28;20030;-75
2023/01/24 00:57:53;;;;;;;42.67;22.33;;;2.20;99.90;;;;;;5028834;28;20414;-74
2023/01/24 01:00:19;;;;;;;45.22;22.45;;;2.20;99.90;;;;;;5028790;28;20091;-71
2023/01/24 01:02:44;;;;;;;45.22;22.67;;;2.30;99.90;;;;;;5010883;28;20875;-74
2023/01/24 01:05:10;;;;;;;38.67;20.07;;;2.20;99.90;;;;;;5028700;28;20033;-73
2023/01/24 01:07:36;;;;;;;45.13;21.15;;;2.20;99.90;;;;;;5028694;28;20033;-73
2023/01/24 01:10:02;;;;;;;44.97;21.42;;;2.20;99.90;;;;;;5028595;28;20052;-75
2023/01/24 01:12:28;;;;;;;41.80;20.40;;;2.20;99.90;;;;;;5028437;28;20021;-75
2023/01/24 01:14:53;;;;;;;41.10;21.50;;;2.20;99.90;;;;;;5028328;28;20032;-75
2023/01/24 01:17:19;;;;;;;46.73;22.63;;;2.20;99.90;;;;;;5028685;28;20458;-67
2023/01/24 01:19:44;;;;;;;48.23;24.07;;;2.20;99.90;;;;;;5028638;28;20043;-73
2023/01/24 01:22:10;;;;;;;42.70;23.27;;;2.20;99.90;;;;;;5023899;28;20087;-73
2023/01/24 01:24:36;;;;;;;42.60;21.23;;;2.20;99.90;;;;;;5028378;28;20767;-74
2023/01/24 01:27:02;;;;;;;43.70;22.10;;;2.20;99.90;;;;;;5028571;28;20268;-72
2023/01/24 01:29:27;;;;;;;42.33;21.23;;;2.20;99.90;;;;;;5026743;28;20079;-72
2023/01/24 01:31:53;;;;;;;40.55;20.65;;;2.20;99.90;;;;;;5028205;28;20045;-73
2023/01/24 01:34:19;;;;;;;43.23;21.80;;;2.10;99.90;;;;;;5027969;28;20029;-72
2023/01/24 01:36:44;;;;;;;52.58;21.10;;;2.20;99.90;;;;;;5027922;28;20052;-71
2023/01/24 01:39:10;;;;;;;40.13;21.63;;;2.10;99.90;;;;;;5027752;28;20041;-73
2023/01/24 01:41:36;;;;;;;39.90;20.65;;;2.20;99.90;;;;;;5027856;28;20652;-74
2023/01/24 01:44:40;;;;;;;44.78;21.98;;;2.20;99.90;;;;;;5027333;28;20412;-73
2023/01/24 01:47:06;;;;;;;45.75;20.75;;;2.20;99.90;;;;;;5027675;28;20057;-69
2023/01/24 01:49:32;;;;;;;42.97;20.83;;;2.20;99.90;;;;;;5027451;28;20026;-71
2023/01/24 01:52:03;;;;;;;45.03;22.33;;;2.20;99.90;;;;;;5027377;28;20136;-70
2023/01/24 01:54:38;;;;;;;55.75;27.50;;;2.10;99.90;;;;;;5027440;28;20072;-70
2023/01/24 01:57:13;;;;;;;53.15;26.42;;;1.90;99.90;;;;;;5027351;28;20025;-68
2023/01/24 01:59:50;;;;;;;50.10;24.08;;;2.00;99.90;;;;;;5027457;28;20033;-71
2023/01/24 02:02:19;;;;;;;51.83;24.88;;;2.00;99.90;;;;;;5027465;28;20037;-74
2023/01/24 02:05:08;;;;;;;51.05;25.52;;;1.90;99.90;;;;;;5027403;28;20037;-73
2023/01/24 02:07:36;;;;;;;47.97;23.05;;;1.90;99.90;;;;;;5026600;28;20033;-73
2023/01/24 02:10:03;;;;;;;55.42;26.42;;;1.90;99.90;;;;;;5027428;28;20489;-74
2023/01/24 02:12:38;;;;;;;50.67;24.00;;;1.80;99.90;;;;;;5027362;28;20519;-74
2023/01/24 02:17:53;;;;;;;50.33;23.98;;;1.80;99.90;;;;;;5027946;28;20060;-74
2023/01/24 02:20:39;;;;;;;42.97;21.65;;;2.00;99.90;;;;;;5010146;28;20022;-75
2023/01/24 02:23:13;;;;;;;46.30;22.65;;;1.90;99.90;;;;;;5027299;28;20088;-75
2023/01/24 02:25:46;;;;;;;48.60;22.15;;;2.00;99.90;;;;;;5027398;28;20103;-71
2023/01/24 02:28:12;;;;;;;45.42;21.48;;;1.90;99.90;;;;;;5025998;28;20048;-68
2023/01/24 02:30:38;;;;;;;46.15;22.52;;;1.90;99.90;;;;;;5027627;28;20033;-68
2023/01/24 02:33:17;;;;;;;39.92;20.20;;;1.90;99.90;;;;;;5027535;28;20105;-71
2023/01/24 02:35:44;;;;;;;39.42;20.48;;;1.90;99.90;;;;;;5013268;28;20077;-68
2023/01/24 02:38:23;;;;;;;42.78;20.38;;;2.00;99.90;;;;;;4997991;28;20029;-68
2023/01/24 02:40:54;;;;;;;47.17;20.65;;;1.90;99.90;;;;;;5018346;28;20464;-68
2023/01/24 02:43:23;;;;;;;46.83;21.50;;;1.90;99.90;;;;;;5020902;28;20103;-69
2023/01/24 02:45:49;;;;;;;46.35;21.88;;;1.80;99.90;;;;;;5023261;28;20080;-67
2023/01/24 02:48:14;;;;;;;43.53;21.60;;;1.80;99.90;;;;;;5009346;28;20030;-70
2023/01/24 02:53:30;;;;;;;41.90;20.95;;;1.80;99.90;;;;;;5023252;28;20044;-69
2023/01/24 02:58:45;;;;;;;41.72;20.80;;;1.90;99.90;;;;;;5020172;28;20036;-73
2023/01/24 03:01:12;;;;;;;37.73;19.20;;;1.90;99.90;;;;;;5023516;28;20420;-73
2023/01/24 03:03:37;;;;;;;46.17;20.58;;;1.90;99.90;;;;;;5019964;28;20038;-73
2023/01/24 03:06:03;;;;;;;36.03;19.30;;;1.90;99.90;;;;;;5024967;28;20028;-75
2023/01/24 03:08:32;;;;;;;41.08;19.45;;;1.90;99.90;;;;;;5024689;28;20464;-71
2023/01/24 03:10:58;;;;;;;41.15;19.83;;;1.90;99.90;;;;;;5022576;28;20029;-74
2023/01/24 03:35:20;;;;;;;42.58;18.70;;;1.90;99.90;;;;;;5025301;28;20032;-73
2023/01/24 03:40:30;;;;;;;41.15;20.67;;;1.90;99.90;;;;;;5022658;28;20814;-74
2023/01/24 03:42:56;;;;;;;40.70;20.23;;;1.90;99.90;;;;;;5019546;28;20046;-71
2023/01/24 03:45:25;;;;;;;42.07;19.23;;;2.00;99.90;;;;;;5019803;28;20064;-74
2023/01/24 03:47:56;;;;;;;43.03;20.55;;;2.00;99.90;;;;;;5021313;28;20048;-69
2023/01/24 03:53:08;;;;;;;44.60;20.65;;;2.10;99.90;;;;;;5024406;28;20563;-72
2023/01/24 03:55:34;;;;;;;38.38;19.15;;;2.10;99.90;;;;;;5022537;28;20034;-73
2023/01/24 03:58:00;;;;;;;41.15;19.42;;;2.10;99.90;;;;;;5017528;28;20041;-74
2023/01/24 04:00:26;;;;;;;37.17;18.40;;;2.10;99.90;;;;;;5021800;28;20022;-73
2023/01/24 04:02:52;;;;;;;36.28;19.80;;;2.20;99.90;;;;;;5023244;28;20041;-72
2023/01/24 04:05:20;;;;;;;40.38;20.02;;;2.20;99.90;;;;;;5019865;28;20038;-71
2023/01/24 04:07:46;;;;;;;39.45;19.63;;;2.20;99.90;;;;;;5024907;28;20079;-69
2023/01/24 04:10:13;;;;;;;39.97;19.05;;;2.20;99.90;;;;;;5024902;28;20033;-72
2023/01/24 04:12:39;;;;;;;43.70;20.25;;;2.20;99.90;;;;;;5006497;28;20060;-71
2023/01/24 04:15:05;;;;;;;45.15;21.45;;;2.20;99.90;;;;;;5014673;28;20502;-70
2023/01/24 04:17:31;;;;;;;38.00;18.33;;;2.20;99.90;;;;;;5023410;28;20072;-73
2023/01/24 04:19:57;;;;;;;39.00;18.37;;;2.10;99.90;;;;;;5024879;28;20025;-69
2023/01/24 04:22:23;;;;;;;35.03;18.75;;;2.10;99.90;;;;;;5021509;28;20049;-73
2023/01/24 04:24:48;;;;;;;41.65;19.05;;;2.10;99.90;;;;;;5005506;28;20060;-74
2023/01/24 04:27:14;;;;;;;40.00;19.30;;;2.20;99.90;;;;;;5021709;28;20108;-75
2023/01/24 04:29:40;;;;;;;39.00;18.70;;;2.20;99.90;;;;;;5022711;28;20520;-73
2023/01/24 04:32:06;;;;;;;41.38;19.88;;;2.20;99.90;;;;;;5022204;28;20025;-74
2023/01/24 04:34:32;;;;;;;;;;;2.20;99.90;;;;;;5019000;28;20048;-77
2023/01/24 04:36:57;;;;;;;35.10;18.42;;;2.20;99.90;;;;;;5007993;28;19909;-74
2023/01/24 04:39:23;;;;;;;44.63;20.37;;;2.20;99.90;;;;;;5022822;28;20036;-69
2023/01/24 04:41:48;;;;;;;43.17;19.43;;;2.10;99.90;;;;;;5022897;28;20069;-68
2023/01/24 04:44:14;;;;;;;43.13;19.43;;;2.20;99.90;;;;;;5022107;28;20037;-69
2023/01/24 04:46:39;;;;;;;37.30;18.03;;;2.10;99.90;;;;;;5005166;28;20025;-68
2023/01/24 04:49:05;;;;;;;35.70;18.27;;;2.10;99.90;;;;;;5021596;28;20087;-68
2023/01/24 04:51:31;;;;;;;36.83;19.13;;;2.10;99.90;;;;;;5023114;28;20868;-69
2023/01/24 04:53:56;;;;;;;37.40;18.40;;;2.10;99.90;;;;;;5020091;28;20033;-73
2023/01/24 04:56:22;;;;;;;40.87;20.10;;;2.10;99.90;;;;;;5021363;28;20029;-69
2023/01/24 04:58:48;;;;;;;46.85;21.13;;;2.10;99.90;;;;;;5020412;28;20610;-68
2023/01/24 05:01:13;;;;;;;44.47;20.33;;;2.00;99.90;;;;;;5018235;28;20104;-70
2023/01/24 05:03:39;;;;;;;48.47;20.33;;;2.10;99.90;;;;;;5007691;28;20049;-70
2023/01/24 05:06:04;;;;;;;38.30;18.67;;;2.10;99.90;;;;;;5025808;28;20026;-72
2023/01/24 05:08:30;;;;;;;41.58;18.75;;;2.10;99.90;;;;;;5019543;28;20037;-72
2023/01/24 05:10:59;;;;;;;43.63;20.63;;;2.10;99.90;;;;;;5021336;28;20704;-73
2023/01/24 05:13:25;;;;;;;40.83;18.85;;;2.00;99.90;;;;;;5022047;28;20714;-71
2023/01/24 05:15:51;;;;;;;39.30;19.30;;;2.00;99.90;;;;;;5021380;28;20025;-73
2023/01/24 05:18:20;;;;;;;44.25;19.25;;;2.00;99.90;;;;;;5017919;28;20159;-69
2023/01/24 05:20:45;;;;;;;40.60;19.55;;;2.00;99.90;;;;;;5016475;28;20417;-73
2023/01/24 05:23:12;;;;;;;42.43;19.97;;;1.90;99.90;;;;;;5023544;28;20041;-72
2023/01/24 05:25:37;;;;;;;42.85;21.20;;;1.80;99.90;;;;;;5007120;28;20288;-71
2023/01/24 05:28:03;;;;;;;42.63;21.47;;;1.80;99.90;;;;;;5020721;28;20044;-74
2023/01/24 05:30:29;;;;;;;43.22;21.10;;;1.80;99.90;;;;;;5018141;28;20034;-72
2023/01/24 05:32:58;;;;;;;39.33;20.52;;;1.80;99.90;;;;;;5014767;28;20048;-74
2023/01/24 05:35:24;;;;;;;43.47;21.08;;;1.90;99.90;;;;;;5021236;28;20389;-73
2023/01/24 05:37:50;;;;;;;43.28;20.00;;;1.90;99.90;;;;;;5018141;28;20052;-72
2023/01/24 05:40:16;;;;;;;41.22;20.80;;;1.90;99.90;;;;;;5016207;28;20045;-75
2023/01/24 05:42:42;;;;;;;;;;;1.90;99.90;;;;;;5019007;28;20409;-74
2023/01/24 05:45:09;;;;;;;43.00;19.27;;;1.90;99.90;;;;;;5021754;28;20011;-69
2023/01/24 05:47:35;;;;;;;48.72;19.67;;;2.00;99.90;;;;;;5019655;28;20040;-71
2023/01/24 05:50:01;;;;;;;45.53;20.60;;;2.00;99.90;;;;;;5020683;28;20033;-72
2023/01/24 05:52:26;;;;;;;52.00;21.60;;;2.00;99.90;;;;;;5007744;28;20537;-71
2023/01/24 05:54:52;;;;;;;41.07;19.43;;;2.10;99.90;;;;;;5023095;28;20125;-73
2023/01/24 05:57:19;;;;;;;42.75;19.27;;;2.10;99.90;;;;;;5019427;28;20599;-71
2023/01/24 05:59:44;;;;;;;46.90;21.45;;;2.10;99.90;;;;;;5019468;28;20029;-72
2023/01/24 06:02:10;;;;;;;43.27;21.50;;;2.10;99.90;;;;;;5014520;28;20408;-70
2023/01/24 06:04:36;;;;;;;45.73;20.50;;;2.10;99.90;;;;;;5022767;28;20066;-73
2023/01/24 06:07:02;;;;;;;50.05;19.98;;;2.00;99.90;;;;;;5019114;28;20264;-70
2023/01/24 06:09:27;;;;;;;42.47;18.20;;;2.00;99.90;;;;;;5020752;28;20124;-71
2023/01/24 06:11:53;;;;;;;51.35;20.30;;;2.10;99.90;;;;;;5020300;28;20033;-74
2023/01/24 06:14:19;;;;;;;41.63;20.60;;;2.10;99.90;;;;;;5017662;28;20037;-68
2023/01/24 06:16:45;;;;;;;41.90;20.40;;;2.10;99.90;;;;;;5020368;28;20041;-70
2023/01/24 06:19:12;;;;;;;39.65;19.15;;;2.10;99.90;;;;;;5002617;28;20131;-74
2023/01/24 06:21:50;;;;;;;44.53;20.65;;;2.20;99.90;;;;;;5019621;28;20032;-73
2023/01/24 06:24:26;;;;;;;40.15;19.38;;;2.10;99.90;;;;;;5009094;28;20045;-73
2023/01/24 06:26:52;;;;;;;43.67;20.40;;;2.20;99.90;;;;;;5028790;28;20203;-71
2023/01/24 06:29:19;;;;;;;40.90;19.45;;;2.20;99.90;;;;;;5028499;28;20167;-70
2023/01/24 06:32:12;;;;;;;42.10;19.75;;;2.30;99.90;;;;;;5023846;28;20112;-73
2023/01/24 06:35:04;;;;;;;48.08;20.90;;;2.30;99.90;;;;;;5023863;28;20021;-77
2023/01/24 06:37:49;;;;;;;53.42;20.65;;;2.20;99.90;;;;;;5023809;28;20030;-70
2023/01/24 06:40:17;;;;;;;46.15;20.95;;;2.30;99.90;;;;;;5021281;28;20029;-76
2023/01/24 06:42:43;;;;;;;41.85;19.55;;;2.30;99.90;;;;;;5024078;28;20041;-77
2023/01/24 06:45:10;;;;;;;46.90;21.48;;;2.30;99.90;;;;;;5022438;28;20056;-74
2023/01/24 06:47:36;;;;;;;44.47;20.73;;;2.30;99.90;;;;;;5021571;28;20034;-77
2023/01/24 06:50:04;;;;;;;44.47;20.83;;;2.30;99.90;;;;;;5022537;28;20091;-75
2023/01/24 06:52:30;;;;;;;44.90;20.63;;;2.30;99.90;;;;;;5022024;28;20489;-78
2023/01/24 06:54:56;;;;;;;58.25;21.48;;;2.30;99.90;;;;;;5019154;28;20024;-69
2023/01/24 06:57:21;;;;;;;45.20;21.83;;;2.30;99.90;;;;;;5021560;28;20068;-68
2023/01/24 06:59:47;;;;;;;46.30;21.17;;;2.30;99.90;;;;;;5020574;28;20043;-72
2023/01/24 07:02:12;;;;;;;56.07;22.10;;;2.40;99.90;;;;;;4999325;28;20363;-75
2023/01/24 07:04:38;;;;;;;47.17;21.03;;;2.40;99.90;;;;;;5019078;28;20378;-71
2023/01/24 07:07:06;;;;;;;45.07;21.00;;;2.30;99.90;;;;;;5021251;28;20100;-69
2023/01/24 07:09:32;;;;;;;54.97;21.83;;;2.30;99.90;;;;;;5025277;28;20447;-71
2023/01/24 07:11:58;;;;;;;52.17;21.98;;;2.30;99.90;;;;;;5024049;28;20038;-71
2023/01/24 07:14:24;;;;;;;49.38;22.08;;;2.20;99.90;;;;;;5023666;28;20030;-70
2023/01/24 07:16:50;;;;;;;50.75;21.92;;;2.20;99.90;;;;;;5008440;28;20784;-71
2023/01/24 07:19:17;;;;;;;;;;;2.20;99.90;;;;;;5023245;28;20891;-72
2023/01/24 07:21:44;;;;;;;52.58;21.92;;;2.30;99.90;;;;;;5024847;28;20424;-74
2023/01/24 07:24:15;;;;;;;49.00;21.23;;;2.20;99.90;;;;;;5021783;28;20046;-72
2023/01/24 07:26:41;;;;;;;48.60;23.25;;;2.30;99.90;;;;;;5020778;28;20398;-73
2023/01/24 07:29:07;;;;;;;46.55;21.83;;;2.30;99.90;;;;;;5020985;28;20072;-75
2023/01/24 07:31:33;;;;;;;44.87;21.80;;;2.30;99.90;;;;;;5025490;28;20041;-73
2023/01/24 07:33:58;;;;;;;47.78;21.02;;;2.30;99.90;;;;;;5025100;28;20548;-75
2023/01/24 07:36:24;;;;;;;47.20;22.07;;;2.30;99.90;;;;;;5023068;28;20563;-75
2023/01/24 07:38:53;;;;;;;44.67;22.27;;;2.40;99.90;;;;;;5020908;28;20762;-73
2023/01/24 07:41:19;;;;;;;51.40;22.73;;;2.30;99.90;;;;;;5022220;28;20312;-77
2023/01/24 07:43:45;;;;;;;45.38;21.85;;;2.30;99.90;;;;;;5022461;28;20505;-76
2023/01/24 07:46:10;;;;;;;47.87;21.53;;;2.40;99.90;;;;;;5020782;28;20036;-75
2023/01/24 07:48:36;;;;;;;47.87;21.77;;;2.40;99.90;;;;;;5023163;28;20064;-78
2023/01/24 07:51:02;;;;;;;45.58;21.38;;;2.40;99.90;;;;;;5022827;28;20065;-78
2023/01/24 07:53:28;;;;;;;45.20;21.05;;;2.40;99.90;;;;;;5006984;28;20044;-78
2023/01/24 07:55:54;;;;;;;49.03;22.37;;;2.50;99.90;;;;;;5014296;28;20034;-78
2023/01/24 07:58:19;;;;;;;47.83;21.73;;;2.50;99.90;;;;;;5025203;28;20102;-76
2023/01/24 08:00:45;;;;;;;51.30;23.93;;;2.60;99.90;;;;;;5019498;28;20280;-78
2023/01/24 08:03:11;;;;;;;42.03;21.23;;;2.60;99.90;;;;;;5019952;28;20043;-75
2023/01/24 08:05:37;;;;;;;42.45;20.70;;;2.70;99.90;;;;;;5021570;28;20025;-76
2023/01/24 08:08:03;;;;;;;44.97;20.17;;;2.90;99.90;;;;;;5013014;28;20067;-73
2023/01/24 08:10:29;;;;;;;45.83;20.67;;;2.80;99.90;;;;;;5007831;28;20749;-74
2023/01/24 08:12:55;;;;;;;44.30;20.10;;;2.80;99.90;;;;;;5018111;28;20540;-76
2023/01/24 08:15:20;;;;;;;41.42;19.88;;;2.90;99.90;;;;;;5017644;28;20033;-73
2023/01/24 08:17:46;;;;;;;42.30;20.67;;;2.90;99.90;;;;;;5003345;28;20156;-73
2023/01/24 08:20:12;;;;;;;41.70;20.02;;;3.00;99.90;;;;;;5019137;28;20522;-75
2023/01/24 08:22:39;;;;;;;40.70;20.67;;;3.00;99.90;;;;;;5020600;28;20060;-74
2023/01/24 08:25:06;;;;;;;45.78;20.65;;;3.10;99.90;;;;;;5018881;28;20109;-72
2023/01/24 08:27:31;;;;;;;;;;;3.10;99.90;;;;;;5002844;28;20525;-73
2023/01/24 08:29:57;;;;;;;49.55;19.98;;;3.00;99.90;;;;;;5021971;28;20004;-75
2023/01/24 08:32:23;;;;;;;47.30;21.43;;;2.90;99.90;;;;;;5021660;28;20026;-76
2023/01/24 08:34:49;;;;;;;43.78;20.15;;;3.00;99.90;;;;;;5022922;28;20472;-76
2023/01/24 08:37:14;;;;;;;49.80;21.73;;;3.00;99.90;;;;;;5019345;28;20054;-71
2023/01/24 08:39:40;;;;;;;55.42;26.42;;;3.00;99.90;;;;;;5022172;28;20100;-77
2023/01/24 08:42:06;;;;;;;48.70;23.80;;;3.00;99.90;;;;;;5016237;28;20087;-73
2023/01/24 08:44:32;;;;;;;44.17;21.60;;;3.20;99.90;;;;;;5020822;28;20081;-73
2023/01/24 08:46:57;;;;;;;40.53;19.90;;;3.30;99.90;;;;;;5021629;28;20033;-75
2023/01/24 08:49:23;;;;;;;43.63;19.03;;;4.90;99.90;;;;;;5018863;28;20121;-74
2023/01/24 08:51:48;;;;;;;43.13;21.00;;;6.20;99.90;;;;;;5015216;28;20477;-73
2023/01/24 08:54:14;;;;;;;43.20;20.03;;;6.60;98.60;;;;;;5020806;28;20037;-73
2023/01/24 08:56:40;;;;;;;40.35;20.27;;;5.90;98.90;;;;;;5016326;28;20025;-78
2023/01/24 08:59:05;;;;;;;44.15;19.98;;;6.20;99.60;;;;;;5023880;28;20037;-78
2023/01/24 09:01:33;;;;;;;38.97;19.57;;;5.80;99.90;;;;;;5015516;28;20029;-76
2023/01/24 09:03:59;;;;;;;49.92;21.15;;;5.90;99.90;;;;;;4998518;28;20580;-76
2023/01/24 09:06:25;;;;;;;41.42;20.85;;;5.70;99.80;;;;;;5002601;28;21508;-78
2023/01/24 09:08:54;;;;;;;46.00;21.08;;;6.70;99.40;;;;;;5023829;28;20033;-77
2023/01/24 09:11:21;;;;;;;41.92;20.42;;;8.00;96.50;;;;;;5013966;28;20033;-73
2023/01/24 09:13:46;;;;;;;35.22;18.83;;;8.90;94.80;;;;;;5018052;28;20025;-71
2023/01/24 09:16:12;;;;;;;43.28;20.00;;;9.00;93.00;;;;;;5016454;28;20037;-71
2023/01/24 09:18:38;;;;;;;40.30;19.20;;;8.30;93.20;;;;;;5013308;28;20525;-71
2023/01/24 09:21:03;;;;;;;34.47;17.93;;;9.10;93.40;;;;;;5016768;28;20037;-73
2023/01/24 09:23:30;;;;;;;34.92;18.58;;;9.60;91.60;;;;;;5004829;28;20479;-74
2023/01/24 09:25:55;;;;;;;35.55;20.35;;;10.10;91.40;;;;;;5006974;28;20549;-72
2023/01/24 09:28:21;;;;;;;33.78;19.27;;;10.50;89.80;;;;;;5018678;28;20128;-72
2023/01/24 09:30:48;;;;;;;33.15;18.80;;;11.20;87.50;;;;;;5020097;28;20064;-71
2023/01/24 09:33:15;;;;;;;35.00;19.63;;;10.30;87.70;;;;;;5005643;28;21418;-71
2023/01/24 09:35:41;;;;;;;36.60;19.63;;;10.30;89.40;;;;;;5022665;28;20026;-72
2023/01/24 09:38:06;;;;;;;38.53;20.53;;;11.20;86.30;;;;;;5022755;28;20421;-70
2023/01/24 09:40:45;;;;;;;33.50;18.47;;;11.50;84.90;;;;;;5023651;28;20029;-72
2023/01/24 09:43:42;;;;;;;33.80;18.95;;;10.20;86.40;;;;;;5016386;28;20033;-73
2023/01/24 09:46:20;;;;;;;36.40;20.35;;;9.00;91.30;;;;;;5006359;28;20040;-71
2023/01/24 09:48:49;;;;;;;38.97;20.20;;;8.40;92.30;;;;;;5017187;28;20059;-74
2023/01/24 09:51:24;;;;;;;34.28;18.98;;;8.60;93.10;;;;;;5019276;28;20033;-72
2023/01/24 09:53:55;;;;;;;37.17;19.52;;;9.10;92.10;;;;;;5007699;28;20058;-75
2023/01/24 09:56:30;;;;;;;35.97;20.75;;;8.30;92.50;;;;;;5019686;28;20053;-71
2023/01/24 09:59:19;;;;;;;36.28;20.73;;;7.90;93.50;;;;;;5007739;28;20845;-73
2023/01/24 10:01:47;;;;;;;36.90;20.00;;;7.40;94.20;;;;;;5017585;28;20026;-72
2023/01/24 10:04:33;;;;;;;38.55;20.77;;;7.20;95.30;;;;;;5019045;28;20040;-74
2023/01/24 10:07:20;;;;;;;35.92;19.83;;;7.50;95.20;;;;;;5018684;28;20033;-74
2023/01/24 10:09:45;;;;;;;37.10;20.85;;;7.00;95.20;;;;;;5017997;28;20029;-70
2023/01/24 10:12:32;;;;;;;36.23;19.87;;;6.60;96.30;;;;;;5019457;28;20548;-74
2023/01/24 10:15:25;;;;;;;37.58;20.00;;;6.40;96.60;;;;;;5020655;28;20037;-75
2023/01/24 10:18:06;;;;;;;48.58;22.92;;;6.30;97.20;;;;;;5016062;28;20750;-78
2023/01/24 10:20:50;;;;;;;41.22;20.42;;;6.10;97.60;;;;;;5016106;28;20503;-77
2023/01/24 10:23:21;;;;;;;45.53;21.38;;;6.00;98.00;;;;;;5008153;28;20098;-71
2023/01/24 10:26:05;;;;;;;49.47;20.73;;;6.10;97.90;;;;;;5015428;28;20115;-73
2023/01/24 10:28:38;;;;;;;41.85;22.08;;;6.00;97.60;;;;;;5008606;28;20036;-71
2023/01/24 10:31:34;;;;;;;47.00;21.83;;;6.10;97.40;;;;;;5016338;28;20060;-71
2023/01/24 10:34:18;;;;;;;39.83;21.05;;;6.30;97.20;;;;;;5019490;28;20111;-70
2023/01/24 10:36:58;;;;;;;43.03;22.73;;;6.30;97.50;;;;;;5016659;28;20143;-73
2023/01/24 10:39:27;;;;;;;42.97;21.05;;;6.50;96.60;;;;;;5021757;28;20040;-71
2023/01/24 10:41:53;;;;;;;44.78;21.50;;;6.50;96.60;;;;;;5016173;28;20152;-71
2023/01/24 10:44:28;;;;;;;44.20;22.70;;;6.50;96.30;;;;;;5018495;28;20102;-71
2023/01/24 10:47:00;;;;;;;39.67;20.75;;;6.50;96.10;;;;;;5015526;28;20418;-70
2023/01/24 10:49:47;;;;;;;40.85;21.92;;;6.70;95.90;;;;;;5015351;28;20535;-73
2023/01/24 10:52:18;;;;;;;40.88;21.25;;;6.90;95.40;;;;;;5015487;28;20033;-70
2023/01/24 10:54:54;;;;;;;42.88;22.05;;;6.90;95.30;;;;;;5016391;28;20040;-71
2023/01/24 10:57:33;;;;;;;40.85;20.58;;;7.00;95.50;;;;;;5019367;28;20393;-70
2023/01/24 11:00:27;;;;;;;41.13;21.90;;;7.10;94.50;;;;;;5018747;28;20029;-72
2023/01/24 11:02:58;;;;;;;40.58;21.15;;;7.00;94.30;;;;;;5019830;28;20041;-70
2023/01/24 11:05:25;;;;;;;40.00;21.73;;;6.80;94.50;;;;;;5014968;28;20109;-69
2023/01/24 11:07:58;;;;;;;40.05;21.05;;;6.70;95.00;;;;;;5021367;28;20061;-70
2023/01/24 11:10:34;;;;;;;46.13;22.55;;;6.60;94.60;;;;;;5009638;28;20026;-70
2023/01/24 11:13:02;;;;;;;39.33;22.35;;;6.50;94.90;;;;;;5008274;28;20022;-69
2023/01/24 11:15:32;;;;;;;38.47;21.80;;;6.50;95.40;;;;;;5009462;28;20113;-69
2023/01/24 11:18:05;;;;;;;38.95;21.15;;;6.50;95.30;;;;;;5015980;28;20091;-69
2023/01/24 11:20:32;;;;;;;42.42;23.17;;;6.50;95.00;;;;;;5029310;28;20091;-69
2023/01/24 11:23:20;;;;;;;41.33;21.77;;;6.30;96.20;;;;;;5029311;28;20018;-73
2023/01/24 11:25:58;;;;;;;39.85;20.67;;;6.20;96.30;;;;;;5029074;28;20040;-69
2023/01/24 11:28:26;;;;;;;41.22;21.70;;;6.20;96.80;;;;;;5029213;28;20512;-67
2023/01/24 11:30:53;;;;;;;47.95;22.75;;;6.20;96.40;;;;;;5028543;28;20489;-68
2023/01/24 11:33:22;;;;;;;41.67;21.27;;;6.20;95.90;;;;;;5029357;28;20025;-68
2023/01/24 11:35:58;;;;;;;39.63;21.35;;;6.40;95.80;;;;;;5025226;28;20030;-68
2023/01/24 11:38:43;;;;;;;33.60;19.27;;;6.40;95.60;;;;;;5011558;28;20034;-68
2023/01/24 11:41:29;;;;;;;38.60;21.08;;;6.50;95.50;;;;;;5008942;28;20040;-69
2023/01/24 11:44:28;;;;;;;43.85;23.20;;;6.40;96.70;;;;;;5027359;28;20421;-69
2023/01/24 11:47:17;;;;;;;46.97;23.58;;;6.40;96.30;;;;;;5020891;28;20025;-69
2023/01/24 11:49:53;;;;;;;46.67;22.98;;;6.40;96.40;;;;;;5019426;28;20473;-68
2023/01/24 11:52:50;;;;;;;42.45;22.75;;;6.40;97.30;;;;;;5018487;28;20029;-68
2023/01/24 11:55:46;;;;;;;41.90;22.83;;;6.40;96.70;;;;;;5014401;28;20532;-67
2023/01/24 11:58:56;;;;;;;46.25;22.58;;;6.30;96.70;;;;;;5025209;28;20036;-69
2023/01/24 12:01:25;;;;;;;42.92;21.15;;;6.30;96.90;;;;;;4998240;28;20038;-69
2023/01/24 12:04:19;;;;;;;40.42;19.50;;;6.20;96.80;;;;;;5015055;28;20048;-70
2023/01/24 12:07:00;;;;;;;39.20;22.15;;;6.10;97.40;;;;;;5008196;28;20087;-68
2023/01/24 12:09:29;;;;;;;40.00;22.20;;;6.20;97.10;;;;;;5009267;28;20026;-70
2023/01/24 12:12:53;;;;;;;41.20;21.58;;;6.30;97.40;;;;;;5018564;28;20041;-67
2023/01/24 12:15:50;;;;;;;37.42;20.58;;;6.40;96.70;;;;;;5002570;28;20579;-65
2023/01/24 12:18:40;;;;;;;36.63;20.88;;;6.20;96.50;;;;;;5027214;28;20072;-65
2023/01/24 12:21:08;;;;;;;33.97;19.42;;;6.10;96.30;;;;;;5025019;28;20041;-65
2023/01/24 12:23:42;;;;;;;36.97;20.23;;;6.20;96.90;;;;;;5024654;28;20032;-64
2023/01/24 12:26:26;;;;;;;42.22;20.88;;;6.20;96.40;;;;;;5017226;28;20104;-64
2023/01/24 12:29:20;;;;;;;39.95;19.30;;;6.20;96.50;;;;;;5016492;28;20180;-64
2023/01/24 12:32:02;;;;;;;40.65;20.95;;;6.20;96.90;;;;;;5019307;28;20224;-65
2023/01/24 12:34:43;;;;;;;48.97;20.02;;;6.10;96.40;;;;;;5018970;28;20049;-66
2023/01/24 12:37:24;;;;;;;34.60;19.10;;;6.10;97.00;;;;;;5017131;28;20041;-70
2023/01/24 12:40:12;;;;;;;45.13;21.10;;;6.20;96.70;;;;;;5019648;28;20517;-68
2023/01/24 12:42:50;;;;;;;43.10;20.75;;;6.30;96.50;;;;;;5015464;28;20088;-68
2023/01/24 12:45:40;;;;;;;36.00;18.92;;;6.30;96.70;;;;;;5020995;28;20033;-65
2023/01/24 12:48:25;;;;;;;44.97;22.27;;;6.30;96.60;;;;;;5020028;28;20080;-64
2023/01/24 12:51:15;;;;;;;39.50;21.95;;;6.30;96.90;;;;;;5022754;28;20036;-69
2023/01/24 12:53:55;;;;;;;36.60;19.35;;;6.20;97.00;;;;;;5009450;28;20446;-69
2023/01/24 12:56:47;;;;;;;36.03;20.10;;;6.30;96.90;;;;;;5026794;28;20072;-71
2023/01/24 12:59:16;;;;;;;43.60;21.55;;;6.40;97.20;;;;;;5027357;28;20408;-65
2023/01/24 13:02:06;;;;;;;47.13;21.83;;;6.50;96.70;;;;;;5023061;28;20084;-66
2023/01/24 13:04:50;;;;;;;36.78;18.17;;;6.50;96.30;;;;;;5016801;28;20037;-66
2023/01/24 13:07:47;;;;;;;38.75;19.30;;;6.40;96.40;;;;;;5018207;28;20032;-65
2023/01/24 13:10:46;;;;;;;42.72;21.50;;;6.60;95.60;;;;;;5014924;28;20044;-69
2023/01/24 13:13:21;;;;;;;36.25;19.52;;;6.60;96.00;;;;;;5016741;28;20390;-66
2023/01/24 13:15:58;;;;;;;33.97;18.60;;;6.50;95.80;;;;;;5013878;28;20022;-68
2023/01/24 13:18:36;;;;;;;45.40;21.63;;;6.50;96.10;;;;;;5010386;28;20052;-66
2023/01/24 13:21:44;;;;;;;36.78;19.45;;;6.60;95.80;;;;;;5020688;28;20029;-65
2023/01/24 13:24:48;;;;;;;41.05;19.63;;;6.60;95.10;;;;;;5002591;28;20077;-64
2023/01/24 13:27:36;;;;;;;33.60;19.35;;;6.70;96.00;;;;;;4956528;28;20788;-65
2023/01/24 13:30:05;;;;;;;38.67;20.10;;;6.50;96.00;;;;;;5027160;28;20033;-65
2023/01/24 13:32:38;;;;;;;42.42;19.77;;;6.50;95.90;;;;;;5024612;28;20025;-64
2023/01/24 13:35:20;;;;;;;34.47;18.98;;;6.60;96.40;;;;;;5018773;28;20028;-65